Atlanta, Georgia
Traffic Map
Current Weather Conditions
Atlanta, Georgia
Few Clouds
Few Clouds
28°
Feels Like: 29°
Wind Chill: 28° Ceiling: Unl
Heat Index: 29° Visibility: 10mi
Dew Point: 20° Wind: 14mph
Humidity: 62% Direction: 70° (ENE)
Pressure: 30.12in Gusts: 0mph
Raw Report DataKATL 301452Z 07012KT 10SM FEW030 28/20 A3012 RMK AO2 SLP188 T02780200 53007
Traffic Incident Summary
Active as of:
Severity:
Category:
InformationThere was an issue retrieving the traffic information for this location. Please try a different location or try again shortly.
Advertisements
Track Severe Weather on mobile